createdAt,value
2017-11-23T00:00:07.846Z,4.10
2017-11-23T00:02:35.370Z,4.80
2017-11-23T00:05:03.021Z,3.97
2017-11-23T00:07:30.544Z,3.87
2017-11-23T00:09:58.846Z,4.80
2017-11-23T00:12:26.359Z,4.90
2017-11-23T00:14:53.873Z,4.83
2017-11-23T00:17:21.409Z,4.33
2017-11-23T00:19:48.923Z,4.50
2017-11-23T00:22:16.471Z,4.50
2017-11-23T00:24:43.980Z,5.10
2017-11-23T00:27:12.265Z,4.30
2017-11-23T00:29:39.843Z,4.33
2017-11-23T00:32:07.383Z,4.37
2017-11-23T00:34:34.901Z,4.80
2017-11-23T00:37:02.445Z,4.23
2017-11-23T00:39:29.948Z,4.30
2017-11-23T00:41:58.241Z,5.00
2017-11-23T00:44:26.512Z,4.20
2017-11-23T00:46:54.808Z,5.20
2017-11-23T00:49:22.322Z,4.50
2017-11-23T00:51:49.849Z,5.50
2017-11-23T00:54:17.364Z,4.03
2017-11-23T00:56:45.655Z,4.13
2017-11-23T00:59:13.951Z,4.40
2017-11-23T01:01:41.468Z,5.00
2017-11-23T01:04:09.784Z,4.00
2017-11-23T01:06:37.367Z,4.23
2017-11-23T01:09:04.899Z,4.20
2017-11-23T01:11:32.462Z,5.30
2017-11-23T01:13:59.989Z,4.33
2017-11-23T01:16:27.504Z,4.03
2017-11-23T01:18:55.071Z,3.33
2017-11-23T01:21:22.587Z,5.00
2017-11-23T01:23:50.876Z,4.10
2017-11-23T01:26:18.460Z,3.93
2017-11-23T01:28:45.987Z,4.23
2017-11-23T01:31:14.295Z,4.30
2017-11-23T01:33:41.860Z,4.00
2017-11-23T01:36:09.368Z,4.07
2017-11-23T01:38:37.683Z,3.90
2017-11-23T01:41:05.252Z,3.83
2017-11-23T01:43:32.801Z,4.33
2017-11-23T01:46:00.374Z,4.10
2017-11-23T01:48:27.904Z,4.43
2017-11-23T01:50:56.180Z,4.20
2017-11-23T01:53:24.472Z,4.53
2017-11-23T01:55:51.989Z,3.90
2017-11-23T01:58:19.519Z,4.07
2017-11-23T02:00:47.028Z,3.77
2017-11-23T02:03:15.346Z,3.90
2017-11-23T02:05:42.865Z,4.60
2017-11-23T02:08:11.276Z,4.03
2017-11-23T02:10:38.788Z,3.97
2017-11-23T02:13:06.296Z,4.10
2017-11-23T02:15:33.821Z,4.20
2017-11-23T02:18:01.328Z,4.07
2017-11-23T02:20:28.880Z,4.50
2017-11-23T02:22:56.397Z,5.13
2017-11-23T02:25:23.924Z,4.27
2017-11-23T02:27:51.445Z,4.10
2017-11-23T02:30:19.750Z,3.93
2017-11-23T02:32:47.262Z,4.57
2017-11-23T02:35:15.562Z,5.97
2017-11-23T02:37:43.870Z,4.87
2017-11-23T02:40:11.392Z,4.07
2017-11-23T02:42:39.664Z,4.30
2017-11-23T02:45:07.263Z,3.93
2017-11-23T02:47:34.816Z,4.17
2017-11-23T02:50:02.354Z,4.07
2017-11-23T02:52:29.867Z,3.90
2017-11-23T02:54:57.425Z,3.53
2017-11-23T02:57:24.923Z,3.97
2017-11-23T02:59:53.206Z,3.83
2017-11-23T03:02:21.508Z,5.33
2017-11-23T03:04:49.017Z,4.40
2017-11-23T03:07:17.311Z,4.00
2017-11-23T03:09:45.630Z,3.80
2017-11-23T03:12:13.188Z,4.30
2017-11-23T03:14:40.702Z,3.50
2017-11-23T03:17:08.305Z,4.27
2017-11-23T03:19:35.820Z,4.00
2017-11-23T03:22:03.347Z,4.20
2017-11-23T03:24:30.884Z,3.90
2017-11-23T03:26:58.412Z,3.70
2017-11-23T03:29:26.684Z,4.37
2017-11-23T03:31:54.207Z,4.03
2017-11-23T03:34:21.714Z,4.53
2017-11-23T03:36:50.031Z,3.90
2017-11-23T03:39:17.558Z,4.47
2017-11-23T03:41:45.870Z,4.60
2017-11-23T03:44:13.438Z,3.97
2017-11-23T03:46:41.092Z,4.60
2017-11-23T03:49:08.606Z,4.20
2017-11-23T03:51:36.213Z,4.40
2017-11-23T03:54:03.721Z,4.37
2017-11-23T03:56:31.263Z,4.80
2017-11-23T03:58:58.793Z,4.17
2017-11-23T04:01:26.350Z,4.00
2017-11-23T04:03:53.906Z,4.07
2017-11-23T04:06:21.415Z,4.17
2017-11-23T04:08:48.952Z,4.10
2017-11-23T04:11:16.488Z,3.77
2017-11-23T04:13:44.041Z,4.27
2017-11-23T04:16:11.556Z,4.50
2017-11-23T04:18:39.287Z,4.43
2017-11-23T04:21:07.339Z,3.73
2017-11-23T04:23:34.858Z,4.50
2017-11-23T04:26:02.376Z,4.17
2017-11-23T04:28:29.923Z,3.83
2017-11-23T04:30:57.485Z,4.77
2017-11-23T04:33:25.025Z,3.67
2017-11-23T04:35:52.537Z,4.30
2017-11-23T04:38:20.161Z,3.80
2017-11-23T04:40:47.667Z,4.53
2017-11-23T04:43:15.204Z,4.00
2017-11-23T04:45:42.711Z,4.80
2017-11-23T04:48:10.308Z,4.33
2017-11-23T04:50:37.815Z,4.53
2017-11-23T04:53:05.324Z,3.73
2017-11-23T04:55:32.869Z,4.30
2017-11-23T04:58:02.411Z,3.63
2017-11-23T05:00:29.928Z,4.00
2017-11-23T05:02:58.229Z,4.23
2017-11-23T05:05:25.801Z,4.20
2017-11-23T05:07:53.305Z,4.70
2017-11-23T05:10:20.831Z,4.43
2017-11-23T05:12:48.351Z,4.50
2017-11-23T05:15:16.644Z,4.23
2017-11-23T05:17:44.155Z,4.57
2017-11-23T05:20:11.763Z,4.23
2017-11-23T05:22:39.275Z,4.53
2017-11-23T05:25:06.804Z,4.17
2017-11-23T05:27:34.357Z,14.67
2017-11-23T05:30:01.876Z,3.90
2017-11-23T05:32:30.188Z,3.97
2017-11-23T05:34:57.717Z,5.80
2017-11-23T05:37:25.998Z,5.00
2017-11-23T05:39:54.418Z,9.73
2017-11-23T05:42:21.932Z,4.90
2017-11-23T05:44:49.524Z,5.00
2017-11-23T05:47:17.049Z,4.57
2017-11-23T05:49:45.364Z,5.20
2017-11-23T05:52:12.891Z,4.60
2017-11-23T05:54:41.195Z,4.53
2017-11-23T05:57:08.718Z,4.40
2017-11-23T05:59:36.325Z,4.40
2017-11-23T06:02:03.852Z,4.27
2017-11-23T06:04:31.381Z,4.90
2017-11-23T06:06:59.008Z,4.73
2017-11-23T06:09:26.522Z,5.20
2017-11-23T06:11:54.137Z,5.23
2017-11-23T06:14:21.643Z,5.03
2017-11-23T06:16:49.259Z,4.83
2017-11-23T06:19:16.812Z,5.40
2017-11-23T06:21:44.335Z,4.97
2017-11-23T06:24:11.846Z,4.67
2017-11-23T06:26:39.392Z,5.17
2017-11-23T06:29:06.999Z,6.43
2017-11-23T06:31:34.611Z,4.90
2017-11-23T06:34:02.182Z,6.40
2017-11-23T06:36:29.723Z,4.60
2017-11-23T06:38:57.245Z,6.13
2017-11-23T06:41:24.870Z,6.10
2017-11-23T06:43:52.414Z,5.20
2017-11-23T06:46:20.708Z,5.37
2017-11-23T06:48:48.265Z,5.30
2017-11-23T06:51:15.780Z,4.97
2017-11-23T06:53:43.376Z,4.50
2017-11-23T06:56:10.888Z,6.13
2017-11-23T06:58:39.932Z,6.13
2017-11-23T07:01:07.451Z,5.20
2017-11-23T07:03:35.468Z,5.33
2017-11-23T07:06:02.987Z,5.93
2017-11-23T07:08:30.598Z,6.30
2017-11-23T07:10:58.116Z,5.60
2017-11-23T07:13:26.431Z,5.47
2017-11-23T07:15:53.944Z,4.93
2017-11-23T07:18:21.477Z,5.00
2017-11-23T07:20:48.985Z,5.37
2017-11-23T07:23:17.276Z,6.13
2017-11-23T07:25:44.791Z,5.77
2017-11-23T07:28:18.016Z,5.40
2017-11-23T07:30:46.321Z,5.50
2017-11-23T07:33:13.865Z,5.70
2017-11-23T07:35:42.154Z,5.40
2017-11-23T07:38:09.696Z,5.50
2017-11-23T07:40:37.994Z,6.07
2017-11-23T07:43:05.511Z,5.93
2017-11-23T07:45:33.131Z,6.40
2017-11-23T07:48:00.659Z,5.50
2017-11-23T07:50:28.954Z,5.80
2017-11-23T07:52:56.476Z,5.47
2017-11-23T07:55:24.047Z,5.90
2017-11-23T07:57:52.349Z,5.70
2017-11-23T08:00:19.917Z,5.83
2017-11-23T08:02:47.452Z,6.00
2017-11-23T08:05:15.749Z,6.73
2017-11-23T08:07:43.285Z,5.97
2017-11-23T08:10:11.684Z,5.43
2017-11-23T08:12:39.221Z,6.03
2017-11-23T08:15:07.528Z,6.00
2017-11-23T08:17:35.086Z,5.80
2017-11-23T08:20:02.615Z,6.40
2017-11-23T08:22:30.145Z,6.03
2017-11-23T08:24:57.677Z,6.30
2017-11-23T08:27:25.197Z,6.10
2017-11-23T08:29:53.495Z,5.57
2017-11-23T08:32:21.776Z,6.80
2017-11-23T08:34:49.301Z,6.13
2017-11-23T08:37:16.827Z,5.73
2017-11-23T08:39:44.454Z,6.60
2017-11-23T08:42:12.028Z,5.73
2017-11-23T08:44:39.592Z,5.80
2017-11-23T08:47:07.144Z,6.47
2017-11-23T08:49:34.690Z,6.77
2017-11-23T08:52:02.269Z,5.80
2017-11-23T08:54:35.445Z,5.83
2017-11-23T08:57:03.725Z,5.70
2017-11-23T08:59:32.027Z,6.17
2017-11-23T09:01:59.557Z,5.80
2017-11-23T09:04:27.859Z,6.30
2017-11-23T09:06:55.390Z,5.77
2017-11-23T09:09:23.689Z,5.80
2017-11-23T09:11:51.207Z,5.90
2017-11-23T09:14:18.811Z,6.17
2017-11-23T09:16:46.375Z,5.77
2017-11-23T09:19:13.900Z,5.80
2017-11-23T09:21:41.416Z,7.13
2017-11-23T09:24:08.956Z,6.37
2017-11-23T09:26:36.524Z,6.07
2017-11-23T09:29:04.057Z,5.83
2017-11-23T09:31:32.353Z,6.53
2017-11-23T09:33:59.923Z,6.67
2017-11-23T09:36:27.487Z,6.17
2017-11-23T09:38:55.024Z,6.50
2017-11-23T09:41:23.330Z,6.70
2017-11-23T09:43:50.877Z,5.53
2017-11-23T09:46:18.444Z,6.80
2017-11-23T09:48:45.952Z,6.00
2017-11-23T09:51:14.995Z,6.50
2017-11-23T09:53:42.504Z,5.87
2017-11-23T09:56:10.113Z,6.07
2017-11-23T09:58:37.627Z,6.07
2017-11-23T10:01:05.233Z,5.77
2017-11-23T10:03:32.796Z,5.50
2017-11-23T10:06:00.319Z,6.17
2017-11-23T10:08:27.832Z,5.37
2017-11-23T10:10:55.380Z,5.80
2017-11-23T10:13:22.895Z,5.73
2017-11-23T10:15:50.518Z,5.70
2017-11-23T10:18:18.071Z,5.40
2017-11-23T10:20:45.604Z,6.43
2017-11-23T10:23:13.912Z,6.70
2017-11-23T10:25:41.444Z,5.53
2017-11-23T10:28:09.745Z,6.50
2017-11-23T10:30:37.396Z,4.77
2017-11-23T10:33:04.959Z,6.10
2017-11-23T10:35:32.520Z,5.20
2017-11-23T10:38:00.038Z,5.37
2017-11-23T10:40:27.745Z,6.10
2017-11-23T10:42:55.257Z,5.47
2017-11-23T10:45:22.787Z,5.60
2017-11-23T10:47:53.140Z,4.87
2017-11-23T10:50:20.673Z,5.47
2017-11-23T10:52:48.187Z,4.70
2017-11-23T10:55:16.497Z,5.10
2017-11-23T10:57:44.006Z,4.43
2017-11-23T11:00:11.609Z,5.00
2017-11-23T11:02:39.172Z,4.90
2017-11-23T11:05:06.697Z,4.70
2017-11-23T11:07:34.223Z,4.90
2017-11-23T11:10:01.732Z,5.07
2017-11-23T11:12:30.063Z,5.20
2017-11-23T11:14:57.583Z,5.80
2017-11-23T11:17:25.116Z,4.73
2017-11-23T11:19:53.416Z,5.00
2017-11-23T11:22:20.936Z,4.90
2017-11-23T11:24:48.460Z,4.30
2017-11-23T11:27:15.964Z,4.90
2017-11-23T11:29:43.486Z,5.13
2017-11-23T11:32:10.988Z,5.50
2017-11-23T11:34:38.508Z,4.87
2017-11-23T11:37:06.034Z,5.07
2017-11-23T11:39:34.319Z,5.23
2017-11-23T11:42:01.835Z,4.83
2017-11-23T11:44:29.366Z,4.80
2017-11-23T11:46:56.871Z,4.17
2017-11-23T11:49:24.401Z,6.20
2017-11-23T11:51:51.908Z,5.13
2017-11-23T11:54:20.203Z,4.57
2017-11-23T11:56:47.756Z,4.93
2017-11-23T11:59:16.147Z,5.03
2017-11-23T12:01:43.683Z,4.57
2017-11-23T12:04:11.971Z,4.87
2017-11-23T12:06:40.267Z,4.60
2017-11-23T12:09:07.821Z,4.57
2017-11-23T12:11:35.384Z,4.90
2017-11-23T12:14:15.044Z,4.43
2017-11-23T12:16:54.448Z,4.40
2017-11-23T12:19:22.748Z,4.63
2017-11-23T12:21:54.073Z,4.33
2017-11-23T12:24:31.644Z,4.60
2017-11-23T12:26:59.160Z,4.50
2017-11-23T12:29:38.697Z,4.33
2017-11-23T12:32:06.251Z,4.83
2017-11-23T12:34:33.811Z,4.20
2017-11-23T12:37:01.328Z,3.90
2017-11-23T12:39:28.927Z,4.83
2017-11-23T12:41:56.491Z,4.90
2017-11-23T12:44:24.011Z,4.03
2017-11-23T12:46:51.613Z,3.93
2017-11-23T12:49:19.153Z,3.80
2017-11-23T12:51:47.448Z,4.50
2017-11-23T12:54:15.099Z,4.17
2017-11-23T12:56:43.387Z,4.10
2017-11-23T12:59:10.994Z,3.90
2017-11-23T13:01:38.615Z,4.03
2017-11-23T13:04:06.139Z,5.77
2017-11-23T13:06:33.734Z,4.80
2017-11-23T13:09:01.254Z,4.43
2017-11-23T13:11:28.863Z,4.50
2017-11-23T13:13:56.424Z,4.80
2017-11-23T13:16:23.981Z,3.90
2017-11-23T13:18:51.516Z,4.50
2017-11-23T13:21:19.819Z,3.83
2017-11-23T13:23:47.344Z,5.50
2017-11-23T13:26:15.646Z,4.17
2017-11-23T13:28:43.932Z,5.00
2017-11-23T13:31:12.291Z,4.77
2017-11-23T13:33:40.609Z,4.10
2017-11-23T13:36:08.124Z,4.37
2017-11-23T13:38:36.413Z,3.87
2017-11-23T13:41:04.807Z,4.30
2017-11-23T13:43:32.376Z,3.37
2017-11-23T13:45:59.915Z,3.80
2017-11-23T13:48:28.188Z,4.27
2017-11-23T13:50:56.583Z,3.93
2017-11-23T13:53:24.170Z,3.63
2017-11-23T13:55:51.700Z,3.73
2017-11-23T13:58:19.968Z,3.27
2017-11-23T14:00:49.191Z,3.60
2017-11-23T14:03:16.709Z,3.40
2017-11-23T14:05:44.324Z,3.77
2017-11-23T14:08:11.840Z,4.07
2017-11-23T14:10:40.135Z,3.80
2017-11-23T14:13:08.416Z,3.67
2017-11-23T14:15:35.983Z,3.60
2017-11-23T14:18:03.511Z,3.97
2017-11-23T14:20:31.811Z,3.40
2017-11-23T14:23:00.104Z,3.43
2017-11-23T14:25:27.660Z,3.87
2017-11-23T14:27:55.941Z,3.80
2017-11-23T14:30:23.506Z,3.90
2017-11-23T14:32:51.011Z,4.00
2017-11-23T14:35:18.553Z,3.83
2017-11-23T14:37:46.088Z,3.67
2017-11-23T14:40:13.656Z,3.93
2017-11-23T14:42:41.235Z,3.60
2017-11-23T14:45:08.768Z,3.87
2017-11-23T14:47:36.285Z,3.73
2017-11-23T14:50:05.415Z,3.37
2017-11-23T14:52:32.984Z,3.50
2017-11-23T14:55:00.543Z,3.60
2017-11-23T14:57:28.105Z,3.73
2017-11-23T14:59:55.621Z,3.70
2017-11-23T15:02:24.723Z,3.47
2017-11-23T15:04:53.019Z,3.80
2017-11-23T15:07:21.321Z,3.50
2017-11-23T15:09:48.891Z,4.27
2017-11-23T15:12:16.424Z,4.20
2017-11-23T15:14:43.950Z,4.57
2017-11-23T15:17:11.468Z,3.50
2017-11-23T15:19:38.972Z,4.00
2017-11-23T15:22:06.589Z,3.20
2017-11-23T15:24:34.959Z,3.83
2017-11-23T15:27:02.490Z,3.77
2017-11-23T15:29:30.015Z,3.43
2017-11-23T15:31:57.537Z,3.57
2017-11-23T15:34:25.107Z,3.97
2017-11-23T15:36:52.639Z,3.20
2017-11-23T15:39:20.967Z,3.40
2017-11-23T15:41:48.518Z,3.00
2017-11-23T15:44:16.068Z,3.60
2017-11-23T15:46:43.604Z,3.33
2017-11-23T15:49:11.901Z,3.00
2017-11-23T15:51:39.471Z,3.40
2017-11-23T15:54:06.991Z,3.57
2017-11-23T15:56:34.521Z,3.90
2017-11-23T15:59:02.027Z,5.10
2017-11-23T16:01:30.315Z,3.70
2017-11-23T16:03:57.883Z,4.20
2017-11-23T16:06:25.445Z,3.70
2017-11-23T16:08:52.976Z,4.47
2017-11-23T16:11:21.271Z,3.80
2017-11-23T16:13:49.566Z,4.10
2017-11-23T16:16:17.115Z,3.60
2017-11-23T16:18:44.635Z,3.90
2017-11-23T16:21:12.909Z,4.83
2017-11-23T16:23:40.432Z,3.93
2017-11-23T16:26:07.974Z,4.07
2017-11-23T16:28:35.514Z,4.17
2017-11-23T16:31:03.798Z,3.50
2017-11-23T16:33:32.098Z,4.23
2017-11-23T16:35:59.604Z,4.60
2017-11-23T16:38:46.845Z,4.10
2017-11-23T16:41:14.809Z,4.43
2017-11-23T16:43:49.542Z,4.07
2017-11-23T16:46:23.412Z,5.50
2017-11-23T16:49:03.601Z,4.17
2017-11-23T17:05:24.230Z,4.00
2017-11-23T17:21:28.239Z,4.33
2017-11-23T17:23:55.769Z,4.63
2017-11-23T17:26:23.285Z,4.20
2017-11-23T17:28:50.832Z,4.20
2017-11-23T17:31:18.402Z,4.30
2017-11-23T17:33:45.957Z,4.50
2017-11-23T17:36:13.525Z,3.93
2017-11-23T17:38:41.086Z,3.77
2017-11-23T17:41:08.618Z,4.67
2017-11-23T17:43:37.004Z,4.50
2017-11-23T17:46:05.356Z,4.10
2017-11-23T17:48:32.957Z,4.80
2017-11-23T17:51:00.495Z,5.20
2017-11-23T17:53:28.784Z,4.80
2017-11-23T17:55:56.339Z,3.80
2017-11-23T17:58:24.643Z,5.10
2017-11-23T18:00:52.210Z,4.27
2017-11-23T18:03:19.767Z,4.00
2017-11-23T18:05:47.312Z,3.87
2017-11-23T18:08:14.849Z,4.40
2017-11-23T18:10:43.298Z,4.00
2017-11-23T18:13:10.833Z,3.47
2017-11-23T18:15:38.373Z,4.10
2017-11-23T18:18:05.897Z,3.60
2017-11-23T18:20:33.465Z,3.57
2017-11-23T18:23:01.029Z,3.63
2017-11-23T18:25:29.328Z,3.43
2017-11-23T18:27:57.730Z,3.30
2017-11-23T18:30:25.421Z,2.63
2017-11-23T18:32:53.057Z,2.87
2017-11-23T18:35:20.592Z,2.77
2017-11-23T18:37:48.138Z,3.00
2017-11-23T18:40:16.458Z,2.47
2017-11-23T18:42:44.031Z,2.10
2017-11-23T18:45:11.611Z,2.40
2017-11-23T18:47:39.201Z,2.63
2017-11-23T18:50:07.628Z,2.50
2017-11-23T18:52:35.823Z,2.23
2017-11-23T18:55:03.348Z,2.33
2017-11-23T18:57:30.896Z,1.83
2017-11-23T18:59:58.420Z,2.30
2017-11-23T19:02:26.029Z,2.00
2017-11-23T19:04:53.584Z,2.20
2017-11-23T19:07:21.116Z,2.23
2017-11-23T19:09:50.145Z,1.97
2017-11-23T19:12:17.740Z,2.90
2017-11-23T19:14:45.293Z,2.60
2017-11-23T19:17:12.928Z,2.33
2017-11-23T19:19:40.457Z,2.27
2017-11-23T19:22:08.861Z,2.23
2017-11-23T19:24:36.386Z,3.60
2017-11-23T19:27:04.690Z,2.13
2017-11-23T19:29:32.969Z,2.40
2017-11-23T19:32:01.274Z,1.90
2017-11-23T19:34:28.801Z,2.00
2017-11-23T19:36:57.223Z,2.27
2017-11-23T19:39:24.789Z,2.47
2017-11-23T19:41:53.142Z,2.27
2017-11-23T19:44:20.662Z,2.40
2017-11-23T19:46:48.223Z,2.37
2017-11-23T19:49:15.788Z,2.40
2017-11-23T19:51:43.322Z,2.37
2017-11-23T19:54:11.852Z,2.30
2017-11-23T19:56:39.761Z,2.33
2017-11-23T19:59:07.481Z,2.50
2017-11-23T20:01:35.876Z,2.10
2017-11-23T20:04:03.404Z,2.30
2017-11-23T20:06:31.840Z,2.60
2017-11-23T20:08:59.484Z,2.23
2017-11-23T20:11:27.004Z,2.67
2017-11-23T20:13:55.313Z,2.17
2017-11-23T20:16:22.844Z,2.17
2017-11-23T20:18:51.161Z,2.40
2017-11-23T20:21:18.733Z,2.20
2017-11-23T20:23:46.260Z,2.50
2017-11-23T20:26:13.877Z,2.00
2017-11-23T20:28:41.439Z,3.13
2017-11-23T20:31:08.971Z,2.13
2017-11-23T20:33:36.556Z,2.40
2017-11-23T20:36:04.135Z,2.43
2017-11-23T20:38:31.714Z,2.23
2017-11-23T20:41:00.028Z,2.67
2017-11-23T20:43:27.589Z,2.80
2017-11-23T20:45:55.112Z,2.70
2017-11-23T20:48:22.682Z,4.20
2017-11-23T20:50:50.977Z,2.77
2017-11-23T20:53:18.546Z,2.80
2017-11-23T20:55:46.066Z,2.60
2017-11-23T20:58:14.351Z,2.57
2017-11-23T21:00:41.878Z,2.80
2017-11-23T21:03:09.399Z,2.50
2017-11-23T21:05:37.058Z,2.13
2017-11-23T21:08:04.650Z,2.87
2017-11-23T21:10:32.177Z,3.07
2017-11-23T21:12:59.689Z,2.43
2017-11-23T21:15:27.314Z,2.53
2017-11-23T21:17:54.891Z,2.43
2017-11-23T21:20:22.477Z,2.80
2017-11-23T21:22:49.984Z,2.93
2017-11-23T21:25:17.521Z,3.30
2017-11-23T21:27:45.812Z,2.93
2017-11-23T21:30:14.097Z,2.67
2017-11-23T21:32:42.415Z,3.03
2017-11-23T21:35:09.931Z,3.17
2017-11-23T21:37:38.238Z,2.97
2017-11-23T21:40:05.805Z,3.03
2017-11-23T21:42:33.331Z,3.30
2017-11-23T21:45:01.723Z,3.03
2017-11-23T21:47:29.244Z,2.60
2017-11-23T21:49:56.772Z,3.47
2017-11-23T21:52:24.280Z,3.50
2017-11-23T21:54:52.585Z,2.70
2017-11-23T21:57:20.111Z,3.13
2017-11-23T21:59:47.718Z,3.77
2017-11-23T22:02:15.247Z,3.23
2017-11-23T22:04:43.643Z,3.77
2017-11-23T22:07:11.176Z,3.70
2017-11-23T22:09:38.712Z,2.90
2017-11-23T22:12:06.272Z,3.00
2017-11-23T22:14:33.872Z,3.70
2017-11-23T22:17:02.284Z,3.10
2017-11-23T22:19:29.789Z,2.80
2017-11-23T22:21:57.316Z,2.60
2017-11-23T22:24:24.891Z,2.63
2017-11-23T22:26:52.513Z,2.27
2017-11-23T22:29:20.033Z,2.40
2017-11-23T22:31:47.559Z,2.40
2017-11-23T22:34:15.101Z,2.50
2017-11-23T22:36:42.622Z,2.60
2017-11-23T22:39:11.001Z,3.10
2017-11-23T22:41:40.041Z,2.93
2017-11-23T22:44:07.561Z,2.90
2017-11-23T22:46:35.872Z,2.63
2017-11-23T22:49:03.468Z,2.63
2017-11-23T22:51:31.015Z,2.93
2017-11-23T22:54:00.088Z,2.60
2017-11-23T22:56:27.621Z,2.93
2017-11-23T22:58:55.928Z,2.90
2017-11-23T23:01:23.482Z,3.07
2017-11-23T23:03:51.126Z,3.23
2017-11-23T23:06:18.733Z,3.20
2017-11-23T23:08:46.372Z,3.30
2017-11-23T23:11:13.952Z,3.20
2017-11-23T23:13:41.461Z,3.27
2017-11-23T23:16:09.057Z,3.20
2017-11-23T23:18:36.609Z,3.70
2017-11-23T23:21:04.222Z,4.70
2017-11-23T23:23:31.734Z,2.77
2017-11-23T23:26:00.116Z,3.30
2017-11-23T23:28:27.683Z,3.47
2017-11-23T23:30:55.187Z,3.20
2017-11-23T23:33:22.739Z,3.30
2017-11-23T23:35:50.271Z,3.30
2017-11-23T23:38:17.837Z,3.43
2017-11-23T23:40:45.352Z,3.30
2017-11-23T23:43:13.689Z,3.80
2017-11-23T23:45:41.214Z,4.57
2017-11-23T23:48:08.742Z,4.23
2017-11-23T23:50:36.333Z,3.17
2017-11-23T23:53:03.870Z,3.40
2017-11-23T23:55:32.150Z,3.43
2017-11-23T23:58:00.456Z,3.40
